createdAt,value
2023-01-23T06:04:16.149Z,1.40
2023-01-23T06:09:17.911Z,1.40
2023-01-23T06:14:19.740Z,1.50
2023-01-23T06:19:21.594Z,1.50
2023-01-23T06:24:23.435Z,1.50
2023-01-23T06:29:25.296Z,1.50
2023-01-23T06:34:27.121Z,1.50
2023-01-23T06:39:31.452Z,1.50
2023-01-23T06:44:33.449Z,1.50
2023-01-23T06:49:35.541Z,1.50
2023-01-23T06:54:37.337Z,1.50
2023-01-23T06:59:41.538Z,1.50
2023-01-23T07:04:43.397Z,1.50
2023-01-23T07:09:45.275Z,1.50
2023-01-23T07:14:47.078Z,1.60
2023-01-23T07:19:48.826Z,1.60
2023-01-23T07:24:50.819Z,1.50
2023-01-23T07:29:52.896Z,1.60
2023-01-23T07:35:00.796Z,1.60
2023-01-23T07:40:05.558Z,1.70
2023-01-23T07:45:09.078Z,1.70
2023-01-23T07:50:15.354Z,1.60
2023-01-23T07:55:17.469Z,1.70
2023-01-23T08:00:20.753Z,1.70
2023-01-23T08:05:24.461Z,1.70
2023-01-23T08:10:26.275Z,1.70
2023-01-23T08:15:28.074Z,1.70
2023-01-23T08:20:29.927Z,1.70
2023-01-23T08:25:31.902Z,1.70
2023-01-23T08:30:33.818Z,1.80
2023-01-23T08:35:35.715Z,1.80
2023-01-23T08:40:37.470Z,1.80
2023-01-23T08:45:39.790Z,1.90
2023-01-23T08:50:41.772Z,1.90
2023-01-23T08:55:43.769Z,1.90
2023-01-23T09:00:45.668Z,1.90
2023-01-23T09:05:47.632Z,2.00
2023-01-23T09:10:49.485Z,2.00
2023-01-23T09:15:51.323Z,2.00
2023-01-23T09:21:03.422Z,2.00
2023-01-23T09:26:06.981Z,2.10
2023-01-23T09:31:11.410Z,2.10
2023-01-23T09:36:13.697Z,2.20
2023-01-23T09:41:21.813Z,2.20
2023-01-23T09:46:33.293Z,2.20
2023-01-23T09:51:38.025Z,2.20
2023-01-23T09:56:46.489Z,2.30
2023-01-23T10:01:51.007Z,2.30
2023-01-23T10:07:05.192Z,2.40
2023-01-23T10:12:18.378Z,2.40
2023-01-23T10:17:47.360Z,2.40
2023-01-23T10:23:40.841Z,2.50
2023-01-23T10:28:44.027Z,2.50
2023-01-23T10:34:03.547Z,2.60
2023-01-23T10:39:13.758Z,2.70
2023-01-23T10:44:20.698Z,2.80
2023-01-23T10:49:32.874Z,2.90
2023-01-23T10:54:46.103Z,3.00
2023-01-23T11:00:04.987Z,3.00
2023-01-23T11:05:51.147Z,3.00
2023-01-23T11:10:54.756Z,3.10
2023-01-23T11:15:57.549Z,3.10
2023-01-23T11:20:59.862Z,3.10
2023-01-23T11:26:03.251Z,3.10
2023-01-23T11:31:22.198Z,3.10
2023-01-23T11:36:45.727Z,3.10
2023-01-23T11:41:48.491Z,3.10
2023-01-23T11:47:09.108Z,3.10
2023-01-23T11:52:42.224Z,3.10
2023-01-23T11:58:21.672Z,3.10
2023-01-23T12:03:41.850Z,3.10
2023-01-23T12:08:55.978Z,3.10
2023-01-23T12:14:17.362Z,3.10
2023-01-23T12:19:25.213Z,3.20
2023-01-23T12:25:18.342Z,3.20
2023-01-23T12:30:38.891Z,3.30
2023-01-23T12:36:02.339Z,3.30
2023-01-23T12:41:18.643Z,3.40
2023-01-23T12:46:27.752Z,3.30
2023-01-23T12:51:34.661Z,3.40
2023-01-23T12:56:38.529Z,3.40
2023-01-23T13:01:50.972Z,3.50
2023-01-23T13:07:12.532Z,3.50
2023-01-23T13:12:22.487Z,3.50
2023-01-23T13:17:39.978Z,3.50
2023-01-23T13:22:41.915Z,3.40
2023-01-23T13:27:54.139Z,3.50
2023-01-23T13:33:06.261Z,3.50
2023-01-23T13:38:23.626Z,3.40
2023-01-23T13:44:00.736Z,3.40
2023-01-23T14:22:04.364Z,3.40
2023-01-23T14:27:19.440Z,3.40
2023-01-23T14:32:24.136Z,3.40
2023-01-23T14:37:26.992Z,3.40
2023-01-23T14:42:30.495Z,3.40
2023-01-23T14:48:05.302Z,3.40
2023-01-23T14:53:18.523Z,3.40
2023-01-23T14:58:24.052Z,3.40
2023-01-23T15:03:37.120Z,3.40
2023-01-23T15:08:39.394Z,3.40
2023-01-23T15:13:47.279Z,3.40
2023-01-23T15:19:21.951Z,3.40
2023-01-23T15:24:31.651Z,3.40
2023-01-23T15:29:34.428Z,3.40
2023-01-23T15:34:36.291Z,3.40
2023-01-23T15:39:40.470Z,3.40
2023-01-23T15:44:43.307Z,3.30
2023-01-23T15:49:45.310Z,3.30
2023-01-23T15:54:47.694Z,3.20
2023-01-23T15:59:55.646Z,3.20
2023-01-23T16:04:57.578Z,3.20
2023-01-23T16:09:59.386Z,3.20
2023-01-23T16:15:01.193Z,3.20
2023-01-23T16:20:03.363Z,3.20
2023-01-23T16:25:05.727Z,3.10
2023-01-23T16:30:15.854Z,3.10
2023-01-23T16:35:18.183Z,3.10
2023-01-23T16:40:22.990Z,3.00
2023-01-23T16:45:30.031Z,3.00
2023-01-23T16:50:37.723Z,3.00
2023-01-23T16:55:41.279Z,3.00
2023-01-23T17:00:43.188Z,3.00
2023-01-23T17:05:45.062Z,3.00
2023-01-23T17:10:48.664Z,3.00
2023-01-23T17:15:53.423Z,3.00
2023-01-23T17:20:57.695Z,2.90
2023-01-23T22:21:18.968Z,2.80
2023-01-23T22:52:33.700Z,2.80
